sensor_id;sensor_type;location;lat;lon;timestamp;pressure;altitude;pressure_sealevel;temperature;humidity
43436;BME280;36399;51.444;-2.018;2022-09-28T00:01:15;99004.56;;;6.11;100.00
43436;BME280;36399;51.444;-2.018;2022-09-28T00:03:42;99010.66;;;6.14;100.00
43436;BME280;36399;51.444;-2.018;2022-09-28T00:06:11;99008.94;;;6.15;100.00
43436;BME280;36399;51.444;-2.018;2022-09-28T00:08:37;99005.53;;;6.23;100.00
43436;BME280;36399;51.444;-2.018;2022-09-28T00:11:06;99009.03;;;6.25;100.00
43436;BME280;36399;51.444;-2.018;2022-09-28T00:13:32;99009.84;;;6.21;100.00
43436;BME280;36399;51.444;-2.018;2022-09-28T00:16:05;99017.72;;;6.24;100.00
43436;BME280;36399;51.444;-2.018;2022-09-28T00:18:32;99018.56;;;6.23;100.00
43436;BME280;36399;51.444;-2.018;2022-09-28T00:23:30;99015.16;;;6.29;100.00
43436;BME280;36399;51.444;-2.018;2022-09-28T00:26:01;99019.47;;;6.27;100.00
43436;BME280;36399;51.444;-2.018;2022-09-28T00:28:28;99019.41;;;6.21;100.00
43436;BME280;36399;51.444;-2.018;2022-09-28T00:30:54;99022.88;;;6.21;100.00
43436;BME280;36399;51.444;-2.018;2022-09-28T00:33:21;99015.78;;;6.02;100.00
43436;BME280;36399;51.444;-2.018;2022-09-28T00:35:54;99014.91;;;6.00;100.00
43436;BME280;36399;51.444;-2.018;2022-09-28T00:38:20;99015.75;;;5.94;100.00
43436;BME280;36399;51.444;-2.018;2022-09-28T00:40:46;99019.09;;;5.83;100.00
43436;BME280;36399;51.444;-2.018;2022-09-28T00:43:17;99015.59;;;5.79;100.00
43436;BME280;36399;51.444;-2.018;2022-09-28T00:45:43;99012.06;;;5.73;100.00
43436;BME280;36399;51.444;-2.018;2022-09-28T00:48:10;99016.34;;;5.70;100.00
43436;BME280;36399;51.444;-2.018;2022-09-28T00:50:37;99016.28;;;5.64;100.00
43436;BME280;36399;51.444;-2.018;2022-09-28T00:53:13;99007.59;;;5.62;100.00
43436;BME280;36399;51.444;-2.018;2022-09-28T00:55:46;99005.84;;;5.60;100.00
43436;BME280;36399;51.444;-2.018;2022-09-28T00:58:19;99008.41;;;5.57;100.00
43436;BME280;36399;51.444;-2.018;2022-09-28T01:00:47;99012.72;;;5.53;100.00
43436;BME280;36399;51.444;-2.018;2022-09-28T01:03:13;99011.81;;;5.48;100.00
43436;BME280;36399;51.444;-2.018;2022-09-28T01:05:40;99025.50;;;5.29;100.00
43436;BME280;36399;51.444;-2.018;2022-09-28T01:08:07;99019.19;;;5.08;100.00
43436;BME280;36399;51.444;-2.018;2022-09-28T01:10:34;99017.41;;;5.04;100.00
43436;BME280;36399;51.444;-2.018;2022-09-28T01:13:00;99012.34;;;5.20;100.00
43436;BME280;36399;51.444;-2.018;2022-09-28T01:15:27;99009.88;;;5.27;100.00
43436;BME280;36399;51.444;-2.018;2022-09-28T01:18:02;99009.72;;;5.15;100.00
43436;BME280;36399;51.444;-2.018;2022-09-28T01:21:04;99003.53;;;5.05;100.00
43436;BME280;36399;51.444;-2.018;2022-09-28T01:26:31;98998.16;;;4.89;100.00
43436;BME280;36399;51.444;-2.018;2022-09-28T01:29:09;98999.81;;;4.82;100.00
43436;BME280;36399;51.444;-2.018;2022-09-28T01:31:40;99003.19;;;4.75;100.00
43436;BME280;36399;51.444;-2.018;2022-09-28T01:34:22;99010.94;;;4.72;100.00
43436;BME280;36399;51.444;-2.018;2022-09-28T01:36:53;99003.16;;;4.72;100.00
43436;BME280;36399;51.444;-2.018;2022-09-28T01:39:27;98996.22;;;4.72;100.00
43436;BME280;36399;51.444;-2.018;2022-09-28T01:41:55;98994.53;;;4.76;100.00
43436;BME280;36399;51.444;-2.018;2022-09-28T01:44:26;98987.00;;;5.00;100.00
43436;BME280;36399;51.444;-2.018;2022-09-28T01:46:57;98977.75;;;5.24;100.00
43436;BME280;36399;51.444;-2.018;2022-09-28T01:49:31;98972.72;;;5.42;100.00
43436;BME280;36399;51.444;-2.018;2022-09-28T01:52:10;98966.78;;;5.57;100.00
43436;BME280;36399;51.444;-2.018;2022-09-28T01:55:23;98956.38;;;5.60;100.00
43436;BME280;36399;51.444;-2.018;2022-09-28T01:57:37;98960.81;;;5.71;100.00
43436;BME280;36399;51.444;-2.018;2022-09-28T02:00:10;98960.88;;;5.75;100.00
43436;BME280;36399;51.444;-2.018;2022-09-28T02:02:58;98956.53;;;5.74;100.00
43436;BME280;36399;51.444;-2.018;2022-09-28T02:05:32;98956.44;;;5.69;100.00
43436;BME280;36399;51.444;-2.018;2022-09-28T02:08:07;98967.69;;;5.63;100.00
43436;BME280;36399;51.444;-2.018;2022-09-28T02:11:00;98969.25;;;5.43;100.00
43436;BME280;36399;51.444;-2.018;2022-09-28T02:13:36;98973.47;;;5.29;100.00
43436;BME280;36399;51.444;-2.018;2022-09-28T02:16:18;98976.69;;;5.10;100.00
43436;BME280;36399;51.444;-2.018;2022-09-28T02:18:46;98977.44;;;4.96;100.00
43436;BME280;36399;51.444;-2.018;2022-09-28T02:21:17;98979.06;;;4.88;100.00
43436;BME280;36399;51.444;-2.018;2022-09-28T02:23:55;98966.81;;;4.78;100.00
43436;BME280;36399;51.444;-2.018;2022-09-28T02:26:35;98975.31;;;4.65;100.00
43436;BME280;36399;51.444;-2.018;2022-09-28T02:29:04;98966.53;;;4.57;100.00
43436;BME280;36399;51.444;-2.018;2022-09-28T02:31:30;98972.50;;;4.48;100.00
43436;BME280;36399;51.444;-2.018;2022-09-28T02:33:56;98978.53;;;4.46;100.00
43436;BME280;36399;51.444;-2.018;2022-09-28T02:36:25;98979.25;;;4.34;100.00
43436;BME280;36399;51.444;-2.018;2022-09-28T02:38:52;98977.47;;;4.31;100.00
43436;BME280;36399;51.444;-2.018;2022-09-28T02:50:14;98975.97;;;4.50;100.00
43436;BME280;36399;51.444;-2.018;2022-09-28T02:55:51;98972.97;;;4.18;100.00
43436;BME280;36399;51.444;-2.018;2022-09-28T02:58:56;98974.84;;;4.28;100.00
43436;BME280;36399;51.444;-2.018;2022-09-28T03:07:28;98977.06;;;4.05;100.00
43436;BME280;36399;51.444;-2.018;2022-09-28T03:12:46;98985.50;;;3.89;100.00
43436;BME280;36399;51.444;-2.018;2022-09-28T03:17:45;98987.06;;;3.79;100.00
43436;BME280;36399;51.444;-2.018;2022-09-28T03:20:11;98987.91;;;3.78;100.00
43436;BME280;36399;51.444;-2.018;2022-09-28T03:22:37;98987.72;;;3.66;100.00
43436;BME280;36399;51.444;-2.018;2022-09-28T03:25:05;98992.91;;;3.65;100.00
43436;BME280;36399;51.444;-2.018;2022-09-28T03:27:31;98981.47;;;3.57;100.00
43436;BME280;36399;51.444;-2.018;2022-09-28T03:29:57;98984.78;;;3.46;100.00
43436;BME280;36399;51.444;-2.018;2022-09-28T03:32:23;98987.19;;;3.36;100.00
43436;BME280;36399;51.444;-2.018;2022-09-28T03:34:49;98988.81;;;3.31;100.00
43436;BME280;36399;51.444;-2.018;2022-09-28T03:37:15;98992.16;;;3.24;100.00
43436;BME280;36399;51.444;-2.018;2022-09-28T03:39:41;98998.97;;;3.19;100.00
43436;BME280;36399;51.444;-2.018;2022-09-28T03:42:07;98983.31;;;3.62;100.00
43436;BME280;36399;51.444;-2.018;2022-09-28T03:44:32;98977.06;;;3.51;100.00
43436;BME280;36399;51.444;-2.018;2022-09-28T03:46:58;98984.69;;;3.42;100.00
43436;BME280;36399;51.444;-2.018;2022-09-28T03:49:24;98988.91;;;3.35;100.00
43436;BME280;36399;51.444;-2.018;2022-09-28T03:51:50;98982.09;;;3.42;100.00
43436;BME280;36399;51.444;-2.018;2022-09-28T03:54:16;98990.84;;;3.47;100.00
43436;BME280;36399;51.444;-2.018;2022-09-28T03:56:42;98983.09;;;3.50;100.00
43436;BME280;36399;51.444;-2.018;2022-09-28T03:59:08;98989.13;;;3.49;100.00
43436;BME280;36399;51.444;-2.018;2022-09-28T04:01:34;98982.19;;;3.48;100.00
43436;BME280;36399;51.444;-2.018;2022-09-28T04:04:00;98996.66;;;3.34;100.00
43436;BME280;36399;51.444;-2.018;2022-09-28T04:06:26;98985.34;;;3.29;100.00
43436;BME280;36399;51.444;-2.018;2022-09-28T04:08:52;98989.66;;;3.30;100.00
43436;BME280;36399;51.444;-2.018;2022-09-28T04:11:19;98992.25;;;3.30;100.00
43436;BME280;36399;51.444;-2.018;2022-09-28T04:13:47;98985.28;;;3.26;100.00
43436;BME280;36399;51.444;-2.018;2022-09-28T04:16:14;98985.53;;;3.41;100.00
43436;BME280;36399;51.444;-2.018;2022-09-28T04:18:43;98985.03;;;3.63;100.00
43436;BME280;36399;51.444;-2.018;2022-09-28T04:21:11;98980.00;;;3.69;100.00
43436;BME280;36399;51.444;-2.018;2022-09-28T04:23:38;98991.03;;;3.59;100.00
43436;BME280;36399;51.444;-2.018;2022-09-28T04:26:07;98984.22;;;3.64;100.00
43436;BME280;36399;51.444;-2.018;2022-09-28T04:28:34;98984.38;;;3.73;100.00
43436;BME280;36399;51.444;-2.018;2022-09-28T04:31:21;98985.34;;;3.80;100.00
43436;BME280;36399;51.444;-2.018;2022-09-28T04:33:47;98982.72;;;3.78;100.00
43436;BME280;36399;51.444;-2.018;2022-09-28T04:36:13;98987.91;;;3.77;100.00
43436;BME280;36399;51.444;-2.018;2022-09-28T04:38:39;98981.94;;;3.84;100.00
43436;BME280;36399;51.444;-2.018;2022-09-28T04:41:06;98984.81;;;4.02;100.00
43436;BME280;36399;51.444;-2.018;2022-09-28T04:43:32;98978.38;;;4.33;100.00
43436;BME280;36399;51.444;-2.018;2022-09-28T04:45:59;98979.47;;;4.51;100.00
43436;BME280;36399;51.444;-2.018;2022-09-28T04:48:26;98970.09;;;4.65;100.00
43436;BME280;36399;51.444;-2.018;2022-09-28T04:50:56;98972.81;;;4.71;100.00
43436;BME280;36399;51.444;-2.018;2022-09-28T04:53:23;98966.88;;;4.81;100.00
43436;BME280;36399;51.444;-2.018;2022-09-28T04:55:56;98973.13;;;5.00;100.00
43436;BME280;36399;51.444;-2.018;2022-09-28T04:58:22;98962.81;;;5.09;100.00
43436;BME280;36399;51.444;-2.018;2022-09-28T05:00:48;98962.03;;;5.18;100.00
43436;BME280;36399;51.444;-2.018;2022-09-28T05:03:16;98960.41;;;5.26;100.00
43436;BME280;36399;51.444;-2.018;2022-09-28T05:05:46;98951.78;;;5.30;100.00
43436;BME280;36399;51.444;-2.018;2022-09-28T05:08:12;98956.19;;;5.37;100.00
43436;BME280;36399;51.444;-2.018;2022-09-28T05:10:38;98958.81;;;5.40;100.00
43436;BME280;36399;51.444;-2.018;2022-09-28T05:13:06;98957.13;;;5.45;100.00
43436;BME280;36399;51.444;-2.018;2022-09-28T05:15:35;98955.41;;;5.47;100.00
43436;BME280;36399;51.444;-2.018;2022-09-28T05:18:01;98958.03;;;5.50;100.00
43436;BME280;36399;51.444;-2.018;2022-09-28T05:20:28;98945.94;;;5.55;100.00
43436;BME280;36399;51.444;-2.018;2022-09-28T05:22:53;98946.81;;;5.57;100.00
43436;BME280;36399;51.444;-2.018;2022-09-28T05:25:19;98952.94;;;5.62;100.00
43436;BME280;36399;51.444;-2.018;2022-09-28T05:27:45;98953.00;;;5.70;100.00
43436;BME280;36399;51.444;-2.018;2022-09-28T05:30:12;98953.81;;;5.66;100.00
43436;BME280;36399;51.444;-2.018;2022-09-28T05:32:41;98956.41;;;5.61;100.00
43436;BME280;36399;51.444;-2.018;2022-09-28T05:35:09;98953.75;;;5.55;100.00
43436;BME280;36399;51.444;-2.018;2022-09-28T05:37:37;98954.53;;;5.47;100.00
43436;BME280;36399;51.444;-2.018;2022-09-28T05:40:03;98963.13;;;5.38;100.00
43436;BME280;36399;51.444;-2.018;2022-09-28T05:42:30;98957.00;;;5.30;100.00
43436;BME280;36399;51.444;-2.018;2022-09-28T05:44:56;98958.63;;;5.20;100.00
43436;BME280;36399;51.444;-2.018;2022-09-28T05:47:25;98969.84;;;5.18;100.00
43436;BME280;36399;51.444;-2.018;2022-09-28T05:49:52;98963.78;;;5.19;100.00
43436;BME280;36399;51.444;-2.018;2022-09-28T05:52:19;98967.22;;;5.15;100.00
43436;BME280;36399;51.444;-2.018;2022-09-28T05:54:45;98958.56;;;5.16;100.00
43436;BME280;36399;51.444;-2.018;2022-09-28T05:57:12;98967.31;;;5.21;100.00
43436;BME280;36399;51.444;-2.018;2022-09-28T05:59:38;98967.38;;;5.27;100.00
43436;BME280;36399;51.444;-2.018;2022-09-28T06:02:05;98961.34;;;5.32;100.00
43436;BME280;36399;51.444;-2.018;2022-09-28T06:04:31;98967.50;;;5.41;100.00
43436;BME280;36399;51.444;-2.018;2022-09-28T06:06:57;98956.28;;;5.49;100.00
43436;BME280;36399;51.444;-2.018;2022-09-28T06:09:24;98957.22;;;5.54;100.00
43436;BME280;36399;51.444;-2.018;2022-09-28T06:11:50;98952.06;;;5.62;100.00
43436;BME280;36399;51.444;-2.018;2022-09-28T06:14:17;98946.88;;;5.66;100.00
43436;BME280;36399;51.444;-2.018;2022-09-28T06:16:43;98952.19;;;5.73;100.00
43436;BME280;36399;51.444;-2.018;2022-09-28T06:19:10;98943.56;;;5.83;100.00
43436;BME280;36399;51.444;-2.018;2022-09-28T06:21:37;98950.53;;;5.87;100.00
43436;BME280;36399;51.444;-2.018;2022-09-28T06:24:03;98950.59;;;5.90;100.00
43436;BME280;36399;51.444;-2.018;2022-09-28T06:26:30;98957.50;;;5.88;100.00
43436;BME280;36399;51.444;-2.018;2022-09-28T06:28:56;98958.31;;;5.81;100.00
43436;BME280;36399;51.444;-2.018;2022-09-28T06:31:22;98959.13;;;5.74;100.00
43436;BME280;36399;51.444;-2.018;2022-09-28T06:33:51;98966.00;;;5.68;100.00
43436;BME280;36399;51.444;-2.018;2022-09-28T06:36:18;98971.19;;;5.65;100.00
43436;BME280;36399;51.444;-2.018;2022-09-28T06:38:45;98972.91;;;5.63;100.00
43436;BME280;36399;51.444;-2.018;2022-09-28T06:41:11;98972.06;;;5.69;100.00
43436;BME280;36399;51.444;-2.018;2022-09-28T06:43:37;98988.56;;;5.69;100.00
43436;BME280;36399;51.444;-2.018;2022-09-28T06:46:07;98982.50;;;5.69;100.00
43436;BME280;36399;51.444;-2.018;2022-09-28T06:48:37;98985.97;;;5.71;100.00
43436;BME280;36399;51.444;-2.018;2022-09-28T06:51:03;98974.78;;;5.80;100.00
43436;BME280;36399;51.444;-2.018;2022-09-28T06:53:29;98966.16;;;5.84;100.00
43436;BME280;36399;51.444;-2.018;2022-09-28T06:55:56;98972.31;;;5.90;100.00
43436;BME280;36399;51.444;-2.018;2022-09-28T06:58:22;98972.31;;;5.92;100.00
43436;BME280;36399;51.444;-2.018;2022-09-28T07:00:50;98972.31;;;5.93;100.00
43436;BME280;36399;51.444;-2.018;2022-09-28T07:03:18;98974.94;;;5.95;100.00
43436;BME280;36399;51.444;-2.018;2022-09-28T07:05:47;98968.91;;;6.02;100.00
43436;BME280;36399;51.444;-2.018;2022-09-28T07:08:15;98973.34;;;6.15;100.00
43436;BME280;36399;51.444;-2.018;2022-09-28T07:10:42;98972.59;;;6.31;100.00
43436;BME280;36399;51.444;-2.018;2022-09-28T07:13:13;98978.78;;;6.52;100.00
43436;BME280;36399;51.444;-2.018;2022-09-28T07:15:40;98978.88;;;6.73;100.00
43436;BME280;36399;51.444;-2.018;2022-09-28T07:18:09;98972.91;;;6.99;100.00
43436;BME280;36399;51.444;-2.018;2022-09-28T07:20:36;98972.09;;;7.21;100.00
43436;BME280;36399;51.444;-2.018;2022-09-28T07:23:04;98969.53;;;7.47;100.00
43436;BME280;36399;51.444;-2.018;2022-09-28T07:25:31;98968.69;;;7.65;100.00
43436;BME280;36399;51.444;-2.018;2022-09-28T07:27:58;98965.19;;;7.78;100.00
43436;BME280;36399;51.444;-2.018;2022-09-28T07:30:26;98968.69;;;7.97;100.00
43436;BME280;36399;51.444;-2.018;2022-09-28T07:32:53;98975.66;;;8.08;100.00
43436;BME280;36399;51.444;-2.018;2022-09-28T07:35:19;98971.25;;;8.24;100.00
43436;BME280;36399;51.444;-2.018;2022-09-28T07:37:45;98971.31;;;8.36;100.00
43436;BME280;36399;51.444;-2.018;2022-09-28T07:40:11;98975.63;;;8.51;100.00
43436;BME280;36399;51.444;-2.018;2022-09-28T07:42:55;98967.66;;;8.78;100.00
43436;BME280;36399;51.444;-2.018;2022-09-28T07:45:21;98992.91;;;8.98;100.00
43436;BME280;36399;51.444;-2.018;2022-09-28T07:47:56;99005.00;;;9.23;100.00
43436;BME280;36399;51.444;-2.018;2022-09-28T07:50:22;99011.81;;;9.52;100.00
43436;BME280;36399;51.444;-2.018;2022-09-28T07:52:48;99026.72;;;9.45;100.00
43436;BME280;36399;51.444;-2.018;2022-09-28T07:55:14;99040.59;;;9.61;100.00
43436;BME280;36399;51.444;-2.018;2022-09-28T07:57:40;99051.94;;;9.63;100.00
43436;BME280;36399;51.444;-2.018;2022-09-28T08:00:06;99071.09;;;9.68;100.00
43436;BME280;36399;51.444;-2.018;2022-09-28T08:02:35;99079.81;;;9.73;100.00
43436;BME280;36399;51.444;-2.018;2022-09-28T08:05:01;99096.38;;;9.76;100.00
43436;BME280;36399;51.444;-2.018;2022-09-28T08:07:27;99097.28;;;9.71;100.00
43436;BME280;36399;51.444;-2.018;2022-09-28T08:09:53;99110.34;;;9.78;100.00
43436;BME280;36399;51.444;-2.018;2022-09-28T08:12:20;99110.34;;;9.81;100.00
43436;BME280;36399;51.444;-2.018;2022-09-28T08:14:46;99111.16;;;9.88;100.00
43436;BME280;36399;51.444;-2.018;2022-09-28T08:17:12;99113.81;;;9.90;100.00
43436;BME280;36399;51.444;-2.018;2022-09-28T08:19:40;99112.97;;;9.77;100.00
43436;BME280;36399;51.444;-2.018;2022-09-28T08:22:24;99127.78;;;9.92;100.00
43436;BME280;36399;51.444;-2.018;2022-09-28T08:24:50;99126.72;;;10.22;100.00
43436;BME280;36399;51.444;-2.018;2022-09-28T08:27:16;99131.78;;;10.49;100.00
43436;BME280;36399;51.444;-2.018;2022-09-28T08:29:43;99128.97;;;10.69;100.00
43436;BME280;36399;51.444;-2.018;2022-09-28T08:32:09;99139.50;;;10.66;100.00
43436;BME280;36399;51.444;-2.018;2022-09-28T08:34:36;99147.59;;;10.37;100.00
43436;BME280;36399;51.444;-2.018;2022-09-28T08:37:03;99147.63;;;10.31;100.00
43436;BME280;36399;51.444;-2.018;2022-09-28T08:39:29;99139.72;;;10.38;100.00
43436;BME280;36399;51.444;-2.018;2022-09-28T08:44:52;99145.72;;;10.57;100.00
43436;BME280;36399;51.444;-2.018;2022-09-28T08:50:31;99154.34;;;10.68;100.00
43436;BME280;36399;51.444;-2.018;2022-09-28T08:53:04;99152.53;;;10.77;100.00
43436;BME280;36399;51.444;-2.018;2022-09-28T08:55:38;99152.44;;;10.86;100.00
43436;BME280;36399;51.444;-2.018;2022-09-28T08:58:24;99159.38;;;10.91;100.00
43436;BME280;36399;51.444;-2.018;2022-09-28T09:00:55;99159.28;;;11.05;100.00
43436;BME280;36399;51.444;-2.018;2022-09-28T09:03:27;99162.59;;;11.22;100.00
43436;BME280;36399;51.444;-2.018;2022-09-28T09:08:49;99170.09;;;11.57;100.00
43436;BME280;36399;51.444;-2.018;2022-09-28T09:14:54;99192.63;;;11.77;100.00
43436;BME280;36399;51.444;-2.018;2022-09-28T09:20:03;99170.03;;;12.29;100.00
43436;BME280;36399;51.444;-2.018;2022-09-28T09:22:38;99185.50;;;12.52;100.00
43436;BME280;36399;51.444;-2.018;2022-09-28T09:25:25;99185.47;;;13.08;100.00
43436;BME280;36399;51.444;-2.018;2022-09-28T09:30:20;99194.13;;;13.14;100.00
43436;BME280;36399;51.444;-2.018;2022-09-28T09:39:26;99195.97;;;13.60;100.00
43436;BME280;36399;51.444;-2.018;2022-09-28T09:41:48;99204.44;;;13.74;100.00
43436;BME280;36399;51.444;-2.018;2022-09-28T09:44:33;99194.94;;;13.67;100.00
43436;BME280;36399;51.444;-2.018;2022-09-28T09:50:02;99200.66;;;12.92;100.00
43436;BME280;36399;51.444;-2.018;2022-09-28T09:52:52;99206.47;;;14.83;100.00
43436;BME280;36399;51.444;-2.018;2022-09-28T09:55:28;99211.16;;;15.74;100.00
43436;BME280;36399;51.444;-2.018;2022-09-28T09:58:11;99211.75;;;17.00;100.00
43436;BME280;36399;51.444;-2.018;2022-09-28T10:00:43;99221.22;;;17.34;100.00
43436;BME280;36399;51.444;-2.018;2022-09-28T10:03:22;99223.06;;;15.58;100.00
43436;BME280;36399;51.444;-2.018;2022-09-28T10:05:56;99219.81;;;15.47;100.00
43436;BME280;36399;51.444;-2.018;2022-09-28T10:08:24;99218.91;;;16.41;100.00
43436;BME280;36399;51.444;-2.018;2022-09-28T10:10:55;99217.19;;;16.69;100.00
43436;BME280;36399;51.444;-2.018;2022-09-28T10:13:26;99224.28;;;17.98;100.00
43436;BME280;36399;51.444;-2.018;2022-09-28T10:15:54;99219.88;;;18.20;100.00
43436;BME280;36399;51.444;-2.018;2022-09-28T10:18:20;99216.25;;;18.46;100.00
43436;BME280;36399;51.444;-2.018;2022-09-28T10:20:46;99208.44;;;18.87;100.00
43436;BME280;36399;51.444;-2.018;2022-09-28T10:23:18;99212.47;;;18.75;100.00
43436;BME280;36399;51.444;-2.018;2022-09-28T10:25:50;99214.50;;;16.71;100.00
43436;BME280;36399;51.444;-2.018;2022-09-28T10:28:25;99223.41;;;16.08;100.00
43436;BME280;36399;51.444;-2.018;2022-09-28T10:30:54;99220.00;;;16.34;100.00
43436;BME280;36399;51.444;-2.018;2022-09-28T10:33:28;99215.09;;;17.06;100.00
43436;BME280;36399;51.444;-2.018;2022-09-28T10:35:54;99220.88;;;16.92;100.00
43436;BME280;36399;51.444;-2.018;2022-09-28T10:38:21;99230.69;;;15.70;100.00
43436;BME280;36399;51.444;-2.018;2022-09-28T10:45:43;99209.72;;;16.53;100.00
43436;BME280;36399;51.444;-2.018;2022-09-28T10:48:20;99223.06;;;17.06;100.00
43436;BME280;36399;51.444;-2.018;2022-09-28T10:51:03;99214.91;;;17.12;100.00
43436;BME280;36399;51.444;-2.018;2022-09-28T10:53:30;99221.78;;;16.91;100.00
43436;BME280;36399;51.444;-2.018;2022-09-28T10:56:18;99224.56;;;15.99;100.00
43436;BME280;36399;51.444;-2.018;2022-09-28T10:58:44;99225.25;;;16.06;100.00
43436;BME280;36399;51.444;-2.018;2022-09-28T11:01:22;99213.88;;;17.92;100.00
43436;BME280;36399;51.444;-2.018;2022-09-28T11:06:29;99209.22;;;19.11;100.00
43436;BME280;36399;51.444;-2.018;2022-09-28T11:09:03;99222.56;;;16.94;100.00
43436;BME280;36399;51.444;-2.018;2022-09-28T11:11:39;99225.59;;;16.25;100.00
43436;BME280;36399;51.444;-2.018;2022-09-28T11:14:57;99232.09;;;16.42;100.00
43436;BME280;36399;51.444;-2.018;2022-09-28T11:17:37;99204.66;;;18.71;100.00
43436;BME280;36399;51.444;-2.018;2022-09-28T11:22:53;99207.03;;;17.60;100.00
43436;BME280;36399;51.444;-2.018;2022-09-28T11:25:25;99204.53;;;17.55;100.00
43436;BME280;36399;51.444;-2.018;2022-09-28T11:30:43;99213.16;;;17.37;100.00
43436;BME280;36399;51.444;-2.018;2022-09-28T11:33:13;99201.19;;;17.25;100.00
43436;BME280;36399;51.444;-2.018;2022-09-28T11:38:58;99202.09;;;19.53;100.00
43436;BME280;36399;51.444;-2.018;2022-09-28T11:42:18;99205.84;;;18.85;100.00
43436;BME280;36399;51.444;-2.018;2022-09-28T11:44:48;99195.59;;;18.31;100.00
43436;BME280;36399;51.444;-2.018;2022-09-28T11:53:23;99187.09;;;19.92;100.00
43436;BME280;36399;51.444;-2.018;2022-09-28T11:56:15;99177.59;;;20.24;100.00
43436;BME280;36399;51.444;-2.018;2022-09-28T11:58:47;99171.72;;;19.17;100.00
43436;BME280;36399;51.444;-2.018;2022-09-28T12:01:27;99180.88;;;17.76;100.00
43436;BME280;36399;51.444;-2.018;2022-09-28T12:04:08;99184.41;;;16.72;100.00
43436;BME280;36399;51.444;-2.018;2022-09-28T12:06:41;99182.47;;;15.59;100.00
43436;BME280;36399;51.444;-2.018;2022-09-28T12:09:24;99179.31;;;14.77;100.00
43436;BME280;36399;51.444;-2.018;2022-09-28T12:11:56;99171.06;;;15.56;100.00
43436;BME280;36399;51.444;-2.018;2022-09-28T12:14:27;99179.94;;;17.00;100.00
43436;BME280;36399;51.444;-2.018;2022-09-28T12:17:03;99162.78;;;18.09;100.00
43436;BME280;36399;51.444;-2.018;2022-09-28T12:19:34;99154.06;;;19.57;100.00
43436;BME280;36399;51.444;-2.018;2022-09-28T12:22:18;99166.63;;;19.53;100.00
43436;BME280;36399;51.444;-2.018;2022-09-28T12:24:50;99157.41;;;20.74;100.00
43436;BME280;36399;51.444;-2.018;2022-09-28T12:27:26;99152.44;;;21.03;100.00
43436;BME280;36399;51.444;-2.018;2022-09-28T12:30:17;99164.97;;;18.66;100.00
43436;BME280;36399;51.444;-2.018;2022-09-28T12:36:21;99165.03;;;16.14;100.00
43436;BME280;36399;51.444;-2.018;2022-09-28T12:46:48;99170.75;;;15.69;100.00
43436;BME280;36399;51.444;-2.018;2022-09-28T12:49:32;99165.66;;;15.29;100.00
43436;BME280;36399;51.444;-2.018;2022-09-28T12:52:35;99163.25;;;14.86;100.00
43436;BME280;36399;51.444;-2.018;2022-09-28T12:57:54;99163.25;;;14.10;100.00
43436;BME280;36399;51.444;-2.018;2022-09-28T13:00:25;99164.50;;;13.93;100.00
43436;BME280;36399;51.444;-2.018;2022-09-28T13:08:19;99153.03;;;16.30;100.00
43436;BME280;36399;51.444;-2.018;2022-09-28T13:10:54;99146.91;;;18.31;100.00
43436;BME280;36399;51.444;-2.018;2022-09-28T13:13:53;99145.78;;;19.42;100.00
43436;BME280;36399;51.444;-2.018;2022-09-28T13:16:36;99138.25;;;19.72;100.00
43436;BME280;36399;51.444;-2.018;2022-09-28T13:19:41;99143.56;;;18.25;100.00
43436;BME280;36399;51.444;-2.018;2022-09-28T13:22:18;99138.56;;;18.16;100.00
43436;BME280;36399;51.444;-2.018;2022-09-28T13:24:47;99141.09;;;17.74;100.00
43436;BME280;36399;51.444;-2.018;2022-09-28T13:27:19;99138.84;;;18.98;100.00
43436;BME280;36399;51.444;-2.018;2022-09-28T13:29:48;99143.25;;;19.80;100.00
43436;BME280;36399;51.444;-2.018;2022-09-28T13:32:17;99137.38;;;19.72;100.00
43436;BME280;36399;51.444;-2.018;2022-09-28T13:34:46;99145.63;;;19.05;100.00
43436;BME280;36399;51.444;-2.018;2022-09-28T13:42:20;99140.03;;;17.30;100.00
43436;BME280;36399;51.444;-2.018;2022-09-28T13:48:02;99131.81;;;17.11;100.00
43436;BME280;36399;51.444;-2.018;2022-09-28T13:56:26;99134.41;;;17.62;100.00
43436;BME280;36399;51.444;-2.018;2022-09-28T14:01:20;99126.13;;;18.40;100.00
43436;BME280;36399;51.444;-2.018;2022-09-28T14:04:20;99118.41;;;19.98;100.00
43436;BME280;36399;51.444;-2.018;2022-09-28T14:06:54;99122.78;;;20.92;100.00
43436;BME280;36399;51.444;-2.018;2022-09-28T14:14:27;99125.03;;;19.30;100.00
43436;BME280;36399;51.444;-2.018;2022-09-28T14:19:52;99123.16;;;17.81;100.00
43436;BME280;36399;51.444;-2.018;2022-09-28T14:25:23;99121.81;;;18.81;100.00
43436;BME280;36399;51.444;-2.018;2022-09-28T14:39:20;99122.09;;;19.57;100.00
43436;BME280;36399;51.444;-2.018;2022-09-28T14:42:11;99108.91;;;20.49;100.00
43436;BME280;36399;51.444;-2.018;2022-09-28T14:48:04;99114.44;;;20.26;100.00
43436;BME280;36399;51.444;-2.018;2022-09-28T14:50:36;99108.53;;;20.74;100.00
43436;BME280;36399;51.444;-2.018;2022-09-28T14:53:09;99110.47;;;20.15;100.00
43436;BME280;36399;51.444;-2.018;2022-09-28T14:55:46;99120.09;;;19.21;100.00
43436;BME280;36399;51.444;-2.018;2022-09-28T14:58:24;99122.19;;;18.28;100.00
43436;BME280;36399;51.444;-2.018;2022-09-28T15:01:00;99115.53;;;17.72;100.00
43436;BME280;36399;51.444;-2.018;2022-09-28T15:03:29;99111.91;;;17.49;100.00
43436;BME280;36399;51.444;-2.018;2022-09-28T15:05:55;99105.31;;;17.36;100.00
43436;BME280;36399;51.444;-2.018;2022-09-28T15:08:21;99102.84;;;17.80;100.00
43436;BME280;36399;51.444;-2.018;2022-09-28T15:10:49;99101.91;;;18.70;100.00
43436;BME280;36399;51.444;-2.018;2022-09-28T15:13:24;99099.94;;;18.75;100.00
43436;BME280;36399;51.444;-2.018;2022-09-28T15:15:54;99099.75;;;17.67;100.00
43436;BME280;36399;51.444;-2.018;2022-09-28T15:20:53;99102.00;;;17.04;100.00
43436;BME280;36399;51.444;-2.018;2022-09-28T15:23:24;99110.59;;;16.04;100.00
43436;BME280;36399;51.444;-2.018;2022-09-28T15:25:51;99113.94;;;15.50;100.00
43436;BME280;36399;51.444;-2.018;2022-09-28T15:28:19;99123.81;;;15.12;100.00